Airfield :
LOGIN :

Register | Disclaimer

   EN    FR    IT 

 










Legend :    VFR   Marginal VFR   IFR   Intensive IFR   Very Intensive IFR
Visi :
Ceiling :
>= 8 km
>= 3000ft
5 to 8 km
1000 to 3000 ft
1500m to 5 km
500 to 1000 ft
800 to 1500m
200 to 500 ft
< 800m
< 200 ft
Symbols :   Thunderstorms  Fog  Heavy snow  Heavy precipitations  Wind > 20 kt
SIGMETs :     Misc.  Thunderstorms  Icing  Turbulence  Mountain Waves  Volcanic Ashes






- Airport Elevation : 1299 ft


EDTY - Adolf Würth

CURRENT METAR :
  • 031120Z 32013KT 9999 VCTS BKN035CB 17/14 Q1011

EXPIRED METARs :
  • 031050Z 06004KT 360V160 9999 BKN029TCU 21/13 Q1011
  • 031020Z 01003KT 310V090 9999 BKN025 21/14 Q1012
  • 030950Z 05003KT 360V120 9999 SCT022 20/15 Q1012
  • 030920Z 06005KT 030V100 9999 SCT018 BKN021 20/15 Q1012

TAF TAF EDTY
Valid from the 03 at 12:00 until the 03 at 21:00 UTC


031100Z 0312/0321 02004KT 9999 BKN030
PROB40
TEMPO 0312/0317 4500 TSRA BKN012 BKN020CB
TEMPO 0317/0321 BKN008



MET'MAP, your aeronautical weather chart ! - Copyright ORBIFLY December 2007 - Disclaimer

ORBIFLY MET'MAP TEAM :

Programming & Development : Alexandra Zaïnal
Concept & original design : Baudouin d'Aumeries
Assistance for programming : Marc-Olivier Méhu
Technical & hardware support : Manuel Goepfert

Contact : metmap@orbifly.com




SOURCES & CREDITS :

   NOAA